Time;durP1;ratioP1;P1;durP2;ratioP2;P2;SDS_P1;SDS_P2;PMS_P1;PMS_P2;Temp;Humidity;BMP_temperature;BMP_pressure;BME280_temperature;BME280_humidity;BME280_pressure;Samples;Min_cycle;Max_cycle;Signal;HPM_P1;HPM_P2
2022/12/23 00:00:13;;;;;;;24.33;5.38;;;;;;;;;;4988964;28;20018;-71
2022/12/23 00:02:38;;;;;;;24.73;5.30;;;;;;;;;;4990273;28;20096;-71
2022/12/23 00:05:04;;;;;;;24.55;5.13;;;;;;;;;;4989395;28;20026;-70
2022/12/23 00:07:29;;;;;;;15.43;4.30;;;;;;;;;;5005065;28;20041;-70
2022/12/23 00:09:55;;;;;;;31.65;6.25;;;;;;;;;;4989411;28;20477;-68
2022/12/23 00:15:04;;;;;;;20.00;4.53;;;;;;;;;;4987062;28;20272;-69
2022/12/23 00:17:30;;;;;;;23.00;5.97;;;;;;;;;;4988900;28;20026;-71
2022/12/23 00:19:55;;;;;;;16.98;4.88;;;;;;;;;;4989077;28;20223;-68
2022/12/23 00:23:03;;;;;;;24.43;5.03;;;;;;;;;;4989708;28;20024;-70
2022/12/23 00:25:05;;;;;;;21.63;5.28;;;;;;;;;;4985882;28;20269;-70
2022/12/23 00:27:30;;;;;;;20.95;5.07;;;;;;;;;;4989019;28;20466;-73
2022/12/23 00:29:55;;;;;;;22.07;4.73;;;;;;;;;;4990119;28;20030;-70
2022/12/23 00:32:21;;;;;;;19.70;5.20;;;;;;;;;;4989255;28;20277;-72
2022/12/23 00:34:46;;;;;;;20.00;5.10;;;;;;;;;;4989861;28;20328;-70
2022/12/23 00:37:11;;;;;;;19.53;6.07;;;;;;;;;;4987110;28;20037;-71
2022/12/23 00:45:14;;;;;;;25.75;4.68;;;;;;;;;;4984992;28;20041;-70
2022/12/23 00:50:23;;;;;;;18.80;4.35;;;;;;;;;;4993526;28;20029;-74
2022/12/23 00:52:48;;;;;;;26.13;5.65;;;;;;;;;;4993417;28;20026;-72
2022/12/23 00:55:14;;;;;;;18.87;5.13;;;;;;;;;;4991571;28;20386;-72
2022/12/23 00:57:39;;;;;;;17.15;4.88;;;;;;;;;;4990916;28;20293;-70
2022/12/23 01:00:04;;;;;;;31.07;6.23;;;;;;;;;;4992550;28;20467;-70
2022/12/23 01:07:57;;;;;;;18.85;5.05;;;;;;;;;;4990335;28;20029;-70
2022/12/23 01:10:22;;;;;;;20.60;5.63;;;;;;;;;;4992317;28;20430;-70
2022/12/23 01:12:48;;;;;;;32.65;8.13;;;;;;;;;;4991364;28;20305;-70
2022/12/23 01:15:13;;;;;;;24.50;5.73;;;;;;;;;;4990818;28;20026;-70
2022/12/23 01:17:38;;;;;;;23.52;6.78;;;;;;;;;;4991784;28;20626;-72
2022/12/23 01:20:04;;;;;;;21.27;5.67;;;;;;;;;;4992573;28;20113;-72
2022/12/23 01:22:29;;;;;;;20.83;4.43;;;;;;;;;;4991929;28;20919;-69
2022/12/23 01:24:54;;;;;;;24.83;6.20;;;;;;;;;;4991818;28;20371;-70
2022/12/23 01:27:19;;;;;;;15.97;4.33;;;;;;;;;;4991581;28;20281;-70
2022/12/23 01:29:44;;;;;;;15.77;5.27;;;;;;;;;;4989670;28;20311;-70
2022/12/23 01:32:10;;;;;;;22.08;5.60;;;;;;;;;;4991856;28;20971;-69
2022/12/23 01:34:35;;;;;;;23.57;5.07;;;;;;;;;;4991949;28;20506;-72
2022/12/23 01:37:00;;;;;;;19.25;4.97;;;;;;;;;;4992470;28;20297;-69
2022/12/23 01:39:25;;;;;;;22.70;5.10;;;;;;;;;;4991292;28;20388;-71
2022/12/23 01:44:46;;;;;;;13.35;3.88;;;;;;;;;;4991263;28;20312;-69
2022/12/23 01:47:15;;;;;;;14.05;4.47;;;;;;;;;;4991751;28;20018;-71
2022/12/23 01:49:41;;;;;;;10.63;3.92;;;;;;;;;;4992332;28;20029;-69
2022/12/23 01:52:06;;;;;;;19.02;4.93;;;;;;;;;;4992283;28;20065;-69
2022/12/23 01:54:32;;;;;;;36.88;6.28;;;;;;;;;;4989904;28;20046;-72
2022/12/23 01:56:57;;;;;;;18.80;5.70;;;;;;;;;;4988860;28;20033;-70
2022/12/23 02:04:52;;;;;;;11.23;4.38;;;;;;;;;;4992175;28;20074;-70
2022/12/23 02:10:02;;;;;;;16.80;4.50;;;;;;;;;;4988588;28;20136;-71
2022/12/23 02:12:49;;;;;;;12.68;4.18;;;;;;;;;;4990568;28;20473;-70
2022/12/23 02:18:30;;;;;;;10.70;3.35;;;;;;;;;;4988450;28;20455;-70
2022/12/23 02:20:55;;;;;;;13.80;4.18;;;;;;;;;;4990406;28;20018;-68
2022/12/23 02:23:35;;;;;;;12.30;3.77;;;;;;;;;;4991797;28;20049;-70
2022/12/23 02:26:00;;;;;;;;;;;;;;;;;;4991785;28;20316;-70
2022/12/23 02:28:44;;;;;;;10.45;3.85;;;;;;;;;;4990244;28;19909;-70
2022/12/23 02:31:17;;;;;;;8.70;3.22;;;;;;;;;;4988632;28;20022;-70
2022/12/23 02:34:09;;;;;;;9.40;4.00;;;;;;;;;;4991481;28;20579;-69
2022/12/23 02:36:34;;;;;;;18.83;4.40;;;;;;;;;;4989925;28;20052;-69
2022/12/23 02:39:14;;;;;;;12.57;4.47;;;;;;;;;;4991154;28;20487;-68
2022/12/23 02:41:46;;;;;;;13.15;4.28;;;;;;;;;;4990203;28;20019;-70
2022/12/23 02:44:17;;;;;;;12.45;4.43;;;;;;;;;;4986811;28;20014;-70
2022/12/23 02:46:46;;;;;;;13.13;4.63;;;;;;;;;;4987993;28;20524;-71
2022/12/23 02:49:14;;;;;;;7.75;3.75;;;;;;;;;;4987912;28;20026;-69
2022/12/23 02:51:42;;;;;;;14.27;4.00;;;;;;;;;;4987709;28;20538;-69
2022/12/23 02:54:09;;;;;;;16.45;4.95;;;;;;;;;;4988875;28;20057;-70
2022/12/23 02:56:37;;;;;;;14.48;5.15;;;;;;;;;;4990301;28;20037;-70
2022/12/23 02:59:28;;;;;;;11.32;3.95;;;;;;;;;;4991184;28;20054;-68
2022/12/23 03:01:53;;;;;;;17.50;4.43;;;;;;;;;;4989710;28;20117;-70
2022/12/23 03:04:18;;;;;;;11.32;4.22;;;;;;;;;;4989022;28;20093;-70
2022/12/23 03:06:47;;;;;;;12.85;5.38;;;;;;;;;;4989602;28;20034;-70
2022/12/23 03:09:22;;;;;;;13.15;4.53;;;;;;;;;;4991083;28;20030;-72
2022/12/23 03:11:51;;;;;;;16.90;6.55;;;;;;;;;;4990199;28;20026;-69
2022/12/23 03:14:22;;;;;;;16.27;5.72;;;;;;;;;;4990067;28;20018;-70
2022/12/23 03:16:55;;;;;;;13.80;5.50;;;;;;;;;;4991332;28;20402;-70
2022/12/23 03:19:32;;;;;;;14.18;6.50;;;;;;;;;;4989645;28;20030;-69
2022/12/23 03:22:16;;;;;;;23.10;5.72;;;;;;;;;;4989164;28;20018;-70
2022/12/23 03:24:46;;;;;;;10.10;4.55;;;;;;;;;;4990358;28;20026;-70
2022/12/23 03:27:24;;;;;;;5.15;2.22;;;;;;;;;;4988730;28;20538;-69
2022/12/23 03:29:59;;;;;;;17.58;6.38;;;;;;;;;;4987772;28;20042;-69
2022/12/23 03:32:26;;;;;;;15.15;4.38;;;;;;;;;;4988329;28;20391;-69
2022/12/23 03:34:54;;;;;;;11.40;5.45;;;;;;;;;;4989808;28;20475;-69
2022/12/23 03:37:20;;;;;;;21.50;6.07;;;;;;;;;;4990013;28;20026;-69
2022/12/23 03:39:46;;;;;;;19.63;6.90;;;;;;;;;;4990220;28;20156;-70
2022/12/23 03:42:18;;;;;;;18.75;5.75;;;;;;;;;;4988831;28;20077;-70
2022/12/23 03:44:46;;;;;;;20.05;8.63;;;;;;;;;;4989127;28;20545;-69
2022/12/23 03:47:14;;;;;;;24.00;7.88;;;;;;;;;;4989286;28;20026;-70
2022/12/23 03:49:45;;;;;;;18.35;6.57;;;;;;;;;;4989242;28;20029;-70
2022/12/23 03:52:15;;;;;;;18.98;6.93;;;;;;;;;;4988670;28;20077;-70
2022/12/23 03:54:54;;;;;;;17.63;7.00;;;;;;;;;;4987159;28;20617;-70
2022/12/23 03:57:20;;;;;;;10.65;5.60;;;;;;;;;;4986928;28;20042;-70
2022/12/23 03:59:49;;;;;;;20.90;6.95;;;;;;;;;;4988986;28;20618;-70
2022/12/23 04:02:19;;;;;;;20.00;7.68;;;;;;;;;;4985509;28;20018;-69
2022/12/23 04:05:03;;;;;;;17.05;7.85;;;;;;;;;;4989761;28;20026;-70
2022/12/23 04:07:37;;;;;;;20.77;7.80;;;;;;;;;;4988067;28;20026;-70
2022/12/23 04:10:03;;;;;;;19.75;7.20;;;;;;;;;;4984627;28;20030;-69
2022/12/23 04:12:29;;;;;;;24.63;7.43;;;;;;;;;;4985749;28;20022;-69
2022/12/23 04:14:54;;;;;;;21.55;7.25;;;;;;;;;;4986811;28;20042;-70
2022/12/23 04:17:19;;;;;;;17.02;4.90;;;;;;;;;;4987954;28;20084;-70
2022/12/23 04:19:45;;;;;;;19.55;4.82;;;;;;;;;;4989440;28;20037;-69
2022/12/23 04:22:14;;;;;;;22.75;5.15;;;;;;;;;;4988725;28;20117;-70
2022/12/23 04:24:39;;;;;;;18.73;4.93;;;;;;;;;;4988070;28;20022;-69
2022/12/23 04:27:05;;;;;;;16.60;4.63;;;;;;;;;;4988313;28;20069;-75
2022/12/23 04:29:30;;;;;;;15.75;3.15;;;;;;;;;;4988238;28;20046;-69
2022/12/23 04:31:55;;;;;;;18.17;4.67;;;;;;;;;;4987801;28;20433;-73
2022/12/23 04:34:21;;;;;;;10.87;3.90;;;;;;;;;;4990092;28;20265;-70
2022/12/23 04:36:46;;;;;;;11.45;3.55;;;;;;;;;;4987049;28;20343;-70
2022/12/23 04:39:11;;;;;;;11.98;3.70;;;;;;;;;;4989100;28;20015;-70
2022/12/23 04:41:36;;;;;;;19.13;4.20;;;;;;;;;;4989476;28;20022;-70
2022/12/23 04:44:01;;;;;;;16.38;4.22;;;;;;;;;;4988846;28;20361;-70
2022/12/23 04:46:26;;;;;;;7.00;3.10;;;;;;;;;;4987198;28;20097;-69
2022/12/23 04:48:52;;;;;;;6.93;2.63;;;;;;;;;;4988431;28;20277;-70
2022/12/23 04:51:17;;;;;;;8.02;2.55;;;;;;;;;;4985871;28;20340;-70
2022/12/23 04:53:42;;;;;;;15.73;3.13;;;;;;;;;;4988487;28;20022;-70
2022/12/23 04:56:07;;;;;;;9.70;2.43;;;;;;;;;;4989036;28;20305;-69
2022/12/23 04:58:32;;;;;;;11.83;3.17;;;;;;;;;;4988081;28;20292;-70
2022/12/23 05:01:02;;;;;;;11.27;3.55;;;;;;;;;;4988134;28;20277;-70
2022/12/23 05:03:27;;;;;;;15.52;3.50;;;;;;;;;;4989239;28;20026;-70
2022/12/23 05:05:52;;;;;;;14.40;3.40;;;;;;;;;;4988034;28;20034;-70
2022/12/23 05:08:18;;;;;;;10.57;2.42;;;;;;;;;;4989620;28;20023;-70
2022/12/23 05:10:46;;;;;;;14.73;2.50;;;;;;;;;;4987208;28;20510;-70
2022/12/23 05:13:11;;;;;;;11.80;2.63;;;;;;;;;;4989816;28;20277;-70
2022/12/23 05:15:36;;;;;;;10.13;2.75;;;;;;;;;;4985828;28;20439;-72
2022/12/23 05:18:02;;;;;;;11.33;3.13;;;;;;;;;;4988329;28;20402;-70
2022/12/23 05:20:27;;;;;;;8.60;3.15;;;;;;;;;;4988777;28;20288;-72
2022/12/23 05:22:52;;;;;;;16.97;3.90;;;;;;;;;;4988183;28;20029;-70
2022/12/23 05:25:17;;;;;;;7.27;2.53;;;;;;;;;;4987957;28;20303;-70
2022/12/23 05:27:42;;;;;;;7.73;1.23;;;;;;;;;;4987391;28;20366;-70
2022/12/23 05:30:08;;;;;;;9.00;2.53;;;;;;;;;;4988081;28;20300;-70
2022/12/23 05:32:33;;;;;;;15.07;2.53;;;;;;;;;;4988096;28;20285;-70
2022/12/23 05:34:58;;;;;;;12.70;2.93;;;;;;;;;;4987768;28;20022;-70
2022/12/23 05:37:23;;;;;;;5.10;2.00;;;;;;;;;;4992257;28;20383;-70
2022/12/23 05:39:49;;;;;;;9.98;2.47;;;;;;;;;;4992211;28;20258;-70
2022/12/23 05:42:18;;;;;;;17.33;2.67;;;;;;;;;;4992181;28;20224;-70
2022/12/23 05:44:43;;;;;;;4.95;2.15;;;;;;;;;;4992981;28;20048;-70
2022/12/23 05:47:08;;;;;;;8.50;3.28;;;;;;;;;;4990028;28;20403;-70
2022/12/23 05:49:33;;;;;;;9.17;3.63;;;;;;;;;;4992119;28;20050;-69
2022/12/23 05:51:58;;;;;;;15.77;2.57;;;;;;;;;;4991622;28;20762;-69
2022/12/23 05:54:24;;;;;;;17.53;3.07;;;;;;;;;;4991417;28;20266;-70
2022/12/23 05:56:49;;;;;;;14.10;2.85;;;;;;;;;;4987850;28;20293;-70
2022/12/23 05:59:14;;;;;;;8.18;2.35;;;;;;;;;;4993124;28;20022;-70
2022/12/23 06:01:39;;;;;;;14.40;2.63;;;;;;;;;;4990292;28;20032;-70
2022/12/23 06:04:04;;;;;;;14.70;2.73;;;;;;;;;;4991222;28;20026;-70
2022/12/23 06:06:30;;;;;;;5.83;2.17;;;;;;;;;;4992345;28;20269;-70
2022/12/23 06:08:55;;;;;;;10.00;3.30;;;;;;;;;;4991940;28;20265;-70
2022/12/23 06:11:20;;;;;;;9.80;3.23;;;;;;;;;;4989922;28;20018;-69
2022/12/23 06:13:45;;;;;;;12.63;1.98;;;;;;;;;;4992108;28;20273;-70
2022/12/23 06:16:10;;;;;;;13.57;2.83;;;;;;;;;;4990536;28;20030;-71
2022/12/23 06:18:36;;;;;;;9.00;2.30;;;;;;;;;;4991510;28;20081;-70
2022/12/23 06:21:01;;;;;;;8.63;2.60;;;;;;;;;;4990308;28;20760;-70
2022/12/23 06:23:26;;;;;;;12.88;1.88;;;;;;;;;;4990544;28;20265;-69
2022/12/23 06:25:57;;;;;;;18.77;2.85;;;;;;;;;;4990605;28;20030;-70
2022/12/23 06:28:22;;;;;;;10.23;2.80;;;;;;;;;;4990721;28;20026;-70
2022/12/23 06:30:51;;;;;;;11.77;3.07;;;;;;;;;;4990252;28;20028;-70
2022/12/23 06:33:16;;;;;;;12.68;2.80;;;;;;;;;;4989624;28;20285;-70
2022/12/23 06:35:41;;;;;;;18.50;2.40;;;;;;;;;;4990994;28;20030;-73
2022/12/23 06:38:07;;;;;;;9.80;2.60;;;;;;;;;;4990940;28;20328;-69
2022/12/23 06:40:32;;;;;;;14.67;3.23;;;;;;;;;;4991053;28;20046;-71
2022/12/23 06:42:57;;;;;;;11.23;2.75;;;;;;;;;;4990001;28;20296;-69
2022/12/23 06:45:22;;;;;;;14.60;2.90;;;;;;;;;;4991832;28;20018;-70
2022/12/23 06:47:47;;;;;;;11.07;2.23;;;;;;;;;;4989361;28;20026;-70
2022/12/23 06:50:13;;;;;;;9.05;2.63;;;;;;;;;;4989534;28;20439;-70
2022/12/23 06:52:38;;;;;;;11.00;1.93;;;;;;;;;;4990326;28;20486;-70
2022/12/23 06:55:03;;;;;;;17.08;2.42;;;;;;;;;;4990595;28;20277;-70
2022/12/23 06:57:28;;;;;;;7.88;2.42;;;;;;;;;;4990140;28;20022;-69
2022/12/23 06:59:54;;;;;;;13.87;2.97;;;;;;;;;;4991113;28;20024;-69
2022/12/23 07:02:19;;;;;;;12.45;3.95;;;;;;;;;;4989267;28;20270;-70
2022/12/23 07:04:44;;;;;;;12.35;3.30;;;;;;;;;;4990266;28;20394;-69
2022/12/23 07:07:09;;;;;;;18.37;7.90;;;;;;;;;;4991319;28;20495;-69
2022/12/23 07:09:34;;;;;;;24.90;7.95;;;;;;;;;;4989728;28;20301;-71
2022/12/23 07:12:01;;;;;;;15.90;6.00;;;;;;;;;;4988752;28;20125;-69
2022/12/23 07:14:26;;;;;;;22.13;6.68;;;;;;;;;;4991601;28;20345;-70
2022/12/23 07:16:51;;;;;;;19.23;6.17;;;;;;;;;;4989295;28;20506;-69
2022/12/23 07:19:16;;;;;;;17.97;3.83;;;;;;;;;;4990748;28;20289;-70
2022/12/23 07:21:42;;;;;;;11.90;4.00;;;;;;;;;;4988743;28;20284;-70
2022/12/23 07:24:07;;;;;;;16.47;3.67;;;;;;;;;;4987576;28;20828;-68
2022/12/23 07:26:32;;;;;;;9.38;3.00;;;;;;;;;;4990157;28;20281;-70
2022/12/23 07:28:57;;;;;;;11.23;3.53;;;;;;;;;;4990922;28;20102;-70
2022/12/23 07:31:23;;;;;;;12.43;3.83;;;;;;;;;;4989567;28;20289;-70
2022/12/23 07:33:48;;;;;;;16.50;3.72;;;;;;;;;;4989214;28;20029;-70
2022/12/23 07:36:13;;;;;;;12.48;2.60;;;;;;;;;;4990449;28;20025;-69
2022/12/23 07:38:38;;;;;;;9.52;3.15;;;;;;;;;;4990501;28;20027;-69
2022/12/23 07:41:03;;;;;;;15.70;3.63;;;;;;;;;;4988418;28;20018;-71
2022/12/23 07:43:29;;;;;;;7.60;2.88;;;;;;;;;;4989258;28;20651;-69
2022/12/23 07:45:54;;;;;;;10.40;4.43;;;;;;;;;;4987748;28;20030;-69
2022/12/23 07:48:19;;;;;;;13.05;3.80;;;;;;;;;;4989965;28;20276;-69
2022/12/23 07:50:44;;;;;;;16.30;4.90;;;;;;;;;;4989941;28;20014;-69
2022/12/23 07:53:09;;;;;;;12.33;5.03;;;;;;;;;;4988890;28;20666;-69
2022/12/23 07:55:35;;;;;;;18.67;5.73;;;;;;;;;;4987361;28;20277;-69
2022/12/23 07:58:00;;;;;;;18.65;5.60;;;;;;;;;;4988857;28;20412;-69
2022/12/23 08:00:25;;;;;;;13.55;5.18;;;;;;;;;;4988545;28;20065;-69
2022/12/23 08:02:50;;;;;;;17.30;5.60;;;;;;;;;;4987879;28;20022;-69
2022/12/23 08:05:16;;;;;;;16.83;5.00;;;;;;;;;;4990163;28;20269;-69
2022/12/23 08:07:41;;;;;;;16.70;5.68;;;;;;;;;;4988950;28;20289;-70
2022/12/23 08:10:06;;;;;;;17.30;4.75;;;;;;;;;;4989397;28;20022;-70
2022/12/23 08:12:32;;;;;;;19.38;5.88;;;;;;;;;;4988872;28;20433;-69
2022/12/23 08:14:57;;;;;;;15.40;5.43;;;;;;;;;;4988590;28;20024;-69
2022/12/23 08:17:24;;;;;;;16.25;5.53;;;;;;;;;;4988071;28;20026;-69
2022/12/23 08:19:50;;;;;;;12.43;3.28;;;;;;;;;;4988904;28;20073;-70
2022/12/23 08:22:15;;;;;;;18.42;6.15;;;;;;;;;;4987838;28;20030;-69
2022/12/23 08:24:40;;;;;;;10.27;3.50;;;;;;;;;;4989912;28;20107;-69
2022/12/23 08:27:06;;;;;;;11.20;4.40;;;;;;;;;;4987602;28;20028;-69
2022/12/23 08:29:31;;;;;;;11.45;4.22;;;;;;;;;;4984919;28;20274;-70
2022/12/23 08:31:56;;;;;;;15.03;4.13;;;;;;;;;;4988549;28;20019;-69
2022/12/23 08:34:21;;;;;;;12.80;4.15;;;;;;;;;;4987516;28;20285;-70
2022/12/23 08:36:46;;;;;;;12.00;4.82;;;;;;;;;;4989020;28;20102;-69
2022/12/23 08:39:12;;;;;;;11.30;4.50;;;;;;;;;;4989269;28;20375;-69
2022/12/23 08:41:41;;;;;;;17.98;5.15;;;;;;;;;;4983671;28;20292;-70
2022/12/23 08:44:07;;;;;;;14.75;6.07;;;;;;;;;;4984792;28;20053;-70
2022/12/23 08:46:33;;;;;;;17.67;5.40;;;;;;;;;;4984759;28;20054;-70
2022/12/23 08:48:58;;;;;;;11.55;5.05;;;;;;;;;;4980554;28;20104;-68
2022/12/23 08:51:24;;;;;;;16.10;4.67;;;;;;;;;;4987046;28;20109;-70
2022/12/23 08:53:49;;;;;;;14.57;5.65;;;;;;;;;;4987855;28;20272;-69
2022/12/23 08:56:19;;;;;;;13.18;4.60;;;;;;;;;;4987477;28;20018;-69
2022/12/23 08:58:45;;;;;;;21.27;6.47;;;;;;;;;;4987913;28;20109;-69
2022/12/23 09:01:12;;;;;;;15.23;4.63;;;;;;;;;;4984872;28;20092;-69
2022/12/23 09:03:38;;;;;;;15.63;5.95;;;;;;;;;;4989419;28;20379;-69
2022/12/23 09:06:04;;;;;;;12.00;4.25;;;;;;;;;;4985116;28;20069;-69
2022/12/23 09:08:29;;;;;;;18.27;6.05;;;;;;;;;;4987890;28;20027;-70
2022/12/23 09:10:55;;;;;;;15.80;5.18;;;;;;;;;;4987704;28;20475;-69
2022/12/23 09:13:20;;;;;;;12.55;4.95;;;;;;;;;;4990892;28;20045;-70
2022/12/23 09:15:45;;;;;;;10.93;5.37;;;;;;;;;;4988687;28;20257;-71
2022/12/23 09:18:11;;;;;;;12.23;4.13;;;;;;;;;;4991172;28;20372;-68
2022/12/23 09:20:36;;;;;;;10.43;4.28;;;;;;;;;;4991349;28;20030;-70
2022/12/23 09:23:02;;;;;;;17.02;5.40;;;;;;;;;;4989832;28;20034;-70
2022/12/23 09:25:28;;;;;;;10.50;4.18;;;;;;;;;;4992507;28;20030;-70
2022/12/23 09:27:53;;;;;;;18.23;5.65;;;;;;;;;;4988858;28;20113;-69
2022/12/23 09:30:18;;;;;;;12.00;5.63;;;;;;;;;;4993218;28;20018;-69
2022/12/23 09:32:43;;;;;;;15.68;4.53;;;;;;;;;;4990786;28;20018;-69
2022/12/23 09:35:08;;;;;;;15.00;4.13;;;;;;;;;;4990945;28;20026;-70
2022/12/23 09:37:34;;;;;;;11.48;5.00;;;;;;;;;;4991771;28;20517;-70
2022/12/23 09:39:59;;;;;;;8.50;4.32;;;;;;;;;;4989759;28;20019;-69
2022/12/23 09:42:36;;;;;;;7.17;3.20;;;;;;;;;;4988455;28;20475;-73
2022/12/23 09:45:13;;;;;;;8.55;3.78;;;;;;;;;;4992314;28;20308;-71
2022/12/23 09:47:39;;;;;;;9.27;3.80;;;;;;;;;;4990049;28;20018;-69
2022/12/23 09:50:24;;;;;;;7.25;3.80;;;;;;;;;;4989396;28;20407;-69
2022/12/23 09:53:11;;;;;;;13.27;3.13;;;;;;;;;;4989141;28;20069;-69
2022/12/23 09:55:36;;;;;;;11.82;4.80;;;;;;;;;;4991119;28;20386;-68
2022/12/23 09:58:07;;;;;;;9.90;3.45;;;;;;;;;;4989792;28;20023;-69
2022/12/23 10:00:41;;;;;;;5.97;2.92;;;;;;;;;;4991703;28;20026;-73
2022/12/23 10:03:14;;;;;;;6.28;2.35;;;;;;;;;;5005070;28;20462;-73
2022/12/23 10:05:43;;;;;;;7.90;2.75;;;;;;;;;;4990497;28;20073;-70
2022/12/23 10:08:19;;;;;;;6.65;2.60;;;;;;;;;;4990565;28;20019;-68
2022/12/23 10:10:47;;;;;;;13.38;2.67;;;;;;;;;;4990107;28;20042;-68
2022/12/23 10:13:24;;;;;;;14.70;3.30;;;;;;;;;;4989009;28;20034;-67
2022/12/23 10:15:50;;;;;;;10.32;3.17;;;;;;;;;;4991203;28;20041;-68
2022/12/23 10:18:36;;;;;;;7.22;3.03;;;;;;;;;;4988980;28;20030;-69
2022/12/23 10:21:23;;;;;;;15.48;2.83;;;;;;;;;;4987875;28;20022;-68
2022/12/23 10:23:51;;;;;;;17.77;2.45;;;;;;;;;;4989817;28;20487;-68
2022/12/23 10:26:36;;;;;;;4.80;2.08;;;;;;;;;;4986686;28;20526;-68
2022/12/23 10:29:21;;;;;;;10.13;2.20;;;;;;;;;;4987317;28;20166;-70
2022/12/23 10:32:05;;;;;;;8.00;2.35;;;;;;;;;;4990058;28;20038;-70
2022/12/23 10:34:36;;;;;;;4.40;2.20;;;;;;;;;;4986021;28;20097;-69
2022/12/23 10:37:04;;;;;;;12.52;2.78;;;;;;;;;;4991894;28;20364;-72
2022/12/23 10:39:35;;;;;;;7.40;2.63;;;;;;;;;;4989761;28;20030;-69
2022/12/23 10:42:04;;;;;;;11.05;3.08;;;;;;;;;;4990760;28;20459;-69
2022/12/23 10:44:45;;;;;;;9.70;3.00;;;;;;;;;;4986779;28;20022;-69
2022/12/23 10:47:10;;;;;;;;;;;;;;;;;;4990008;28;20269;-71
2022/12/23 10:49:38;;;;;;;11.27;2.80;;;;;;;;;;4988798;28;19909;-69
2022/12/23 10:52:23;;;;;;;7.55;2.53;;;;;;;;;;4988270;28;20022;-69
2022/12/23 10:54:49;;;;;;;5.30;2.13;;;;;;;;;;4988023;28;20034;-70
2022/12/23 10:57:15;;;;;;;10.88;2.70;;;;;;;;;;4989892;28;20029;-71
2022/12/23 10:59:40;;;;;;;6.38;1.88;;;;;;;;;;4989384;28;20113;-71
2022/12/23 11:02:11;;;;;;;10.83;2.70;;;;;;;;;;4990925;28;20109;-69
2022/12/23 11:04:40;;;;;;;5.32;2.55;;;;;;;;;;4991485;28;20766;-72
2022/12/23 11:07:13;;;;;;;8.43;3.05;;;;;;;;;;4988208;28;20525;-69
2022/12/23 11:09:39;;;;;;;10.20;2.60;;;;;;;;;;4986297;28;20031;-69
2022/12/23 11:12:06;;;;;;;7.50;3.15;;;;;;;;;;4991145;28;20126;-69
2022/12/23 11:14:40;;;;;;;10.13;3.13;;;;;;;;;;4988614;28;20026;-72
2022/12/23 11:17:17;;;;;;;9.32;2.50;;;;;;;;;;4991559;28;20041;-72
2022/12/23 11:19:42;;;;;;;7.00;2.63;;;;;;;;;;4991803;28;20026;-69
2022/12/23 11:22:19;;;;;;;6.78;1.95;;;;;;;;;;4991572;28;20475;-71
2022/12/23 11:24:44;;;;;;;8.23;2.45;;;;;;;;;;4989615;28;20026;-73
2022/12/23 11:27:12;;;;;;;10.43;2.67;;;;;;;;;;4988773;28;20034;-69
2022/12/23 11:29:39;;;;;;;9.27;1.75;;;;;;;;;;4990723;28;20022;-71
2022/12/23 11:32:14;;;;;;;8.88;2.55;;;;;;;;;;4990423;28;20026;-71
2022/12/23 11:34:43;;;;;;;10.88;1.98;;;;;;;;;;4990027;28;20014;-69
2022/12/23 11:37:21;;;;;;;7.03;2.75;;;;;;;;;;4990007;28;20072;-69
2022/12/23 11:39:46;;;;;;;5.55;1.98;;;;;;;;;;4991024;28;20494;-70
2022/12/23 11:42:16;;;;;;;8.35;2.15;;;;;;;;;;4990210;28;20026;-69
2022/12/23 11:44:41;;;;;;;15.63;2.75;;;;;;;;;;4988701;28;20117;-70
2022/12/23 11:47:17;;;;;;;5.90;1.95;;;;;;;;;;4990515;28;20110;-69
2022/12/23 11:49:48;;;;;;;3.03;1.60;;;;;;;;;;4987337;28;20609;-70
2022/12/23 11:52:16;;;;;;;4.80;1.70;;;;;;;;;;4990227;28;20080;-71
2022/12/23 11:54:47;;;;;;;6.03;1.80;;;;;;;;;;4990846;28;20026;-69
2022/12/23 11:57:17;;;;;;;3.50;1.67;;;;;;;;;;4990932;28;20454;-71
2022/12/23 11:59:47;;;;;;;8.50;2.42;;;;;;;;;;4989558;28;20110;-72
2022/12/23 12:02:18;;;;;;;9.40;2.65;;;;;;;;;;4989872;28;20061;-71
2022/12/23 12:04:49;;;;;;;2.45;1.33;;;;;;;;;;4989454;28;20022;-71
2022/12/23 12:07:14;;;;;;;;;;;;;;;;;;4990180;28;20049;-72
2022/12/23 12:09:40;;;;;;;4.18;1.20;;;;;;;;;;4989361;28;19949;-71
2022/12/23 12:12:11;;;;;;;9.07;1.88;;;;;;;;;;4989459;28;20022;-71
2022/12/23 12:14:36;;;;;;;;;;;;;;;;;;4988760;28;20122;-70
2022/12/23 12:17:10;;;;;;;2.67;0.85;;;;;;;;;;4988249;28;20004;-72
2022/12/23 12:19:39;;;;;;;2.75;0.85;;;;;;;;;;4988655;28;20072;-74
2022/12/23 12:22:18;;;;;;;3.00;1.30;;;;;;;;;;4985854;28;20173;-70
2022/12/23 12:24:46;;;;;;;7.07;1.80;;;;;;;;;;4987283;28;20029;-72
2022/12/23 12:27:12;;;;;;;7.10;1.48;;;;;;;;;;4989680;28;20490;-71
2022/12/23 12:29:43;;;;;;;1.92;0.93;;;;;;;;;;4988933;28;20081;-71
2022/12/23 12:32:13;;;;;;;4.13;1.08;;;;;;;;;;4986189;28;20030;-71
2022/12/23 12:34:44;;;;;;;9.80;1.33;;;;;;;;;;4988889;28;20490;-73
2022/12/23 12:37:15;;;;;;;5.97;2.42;;;;;;;;;;4989621;28;20109;-69
2022/12/23 12:39:41;;;;;;;10.25;1.33;;;;;;;;;;4987781;28;20097;-70
2022/12/23 12:42:20;;;;;;;3.70;0.93;;;;;;;;;;4989052;28;20022;-71
2022/12/23 12:44:52;;;;;;;8.50;1.40;;;;;;;;;;4992299;28;20541;-70
2022/12/23 12:47:27;;;;;;;10.77;1.40;;;;;;;;;;4996484;28;20105;-70
2022/12/23 12:49:57;;;;;;;4.20;1.45;;;;;;;;;;4994143;28;20034;-70
2022/12/23 12:52:24;;;;;;;9.63;1.60;;;;;;;;;;4992846;28;20061;-71
2022/12/23 12:54:51;;;;;;;3.15;0.98;;;;;;;;;;4996704;28;20034;-71
2022/12/23 12:57:18;;;;;;;7.93;1.40;;;;;;;;;;4996313;28;20025;-71
2022/12/23 12:59:43;;;;;;;2.30;1.17;;;;;;;;;;4996617;28;20022;-71
2022/12/23 13:02:21;;;;;;;6.30;1.17;;;;;;;;;;4993981;28;20026;-71
2022/12/23 13:05:07;;;;;;;5.93;1.70;;;;;;;;;;4996194;28;20114;-70
2022/12/23 13:07:37;;;;;;;4.55;1.30;;;;;;;;;;4987320;28;20074;-70
2022/12/23 13:10:21;;;;;;;5.20;1.58;;;;;;;;;;4993827;28;20574;-70
2022/12/23 13:12:49;;;;;;;3.78;2.05;;;;;;;;;;4992101;28;20033;-70
2022/12/23 13:15:17;;;;;;;4.07;1.75;;;;;;;;;;4993946;28;20025;-70
2022/12/23 13:17:51;;;;;;;6.68;1.02;;;;;;;;;;4992388;28;20026;-70
2022/12/23 13:20:19;;;;;;;8.45;4.18;;;;;;;;;;4996210;28;20030;-70
2022/12/23 13:22:48;;;;;;;11.52;3.60;;;;;;;;;;4994192;28;20018;-70
2022/12/23 13:25:20;;;;;;;11.15;3.30;;;;;;;;;;4995616;28;20415;-70
2022/12/23 13:27:56;;;;;;;9.10;3.63;;;;;;;;;;4994393;28;20030;-70
2022/12/23 13:30:23;;;;;;;2.40;1.13;;;;;;;;;;4991363;28;20026;-71
2022/12/23 13:33:06;;;;;;;3.20;1.15;;;;;;;;;;4993374;28;20363;-71
2022/12/23 13:35:50;;;;;;;5.93;1.70;;;;;;;;;;4989457;28;20022;-71
2022/12/23 13:38:16;;;;;;;3.10;1.38;;;;;;;;;;4993387;28;20480;-70
2022/12/23 13:41:00;;;;;;;2.45;1.02;;;;;;;;;;4995432;28;20034;-70
2022/12/23 13:43:28;;;;;;;5.28;1.30;;;;;;;;;;4990072;28;20041;-70
2022/12/23 13:45:54;;;;;;;3.70;1.55;;;;;;;;;;4994940;28;20069;-71
2022/12/23 13:48:23;;;;;;;5.13;1.27;;;;;;;;;;4993446;28;20073;-71
2022/12/23 13:50:52;;;;;;;2.20;0.75;;;;;;;;;;4993292;28;20471;-71
2022/12/23 13:53:23;;;;;;;2.03;0.52;;;;;;;;;;4995074;28;20475;-71
2022/12/23 13:55:59;;;;;;;1.45;0.82;;;;;;;;;;4991855;28;20030;-70
2022/12/23 13:58:25;;;;;;;3.47;1.20;;;;;;;;;;4988776;28;20014;-71
2022/12/23 14:00:58;;;;;;;0.85;0.68;;;;;;;;;;4987994;28;20041;-73
2022/12/23 14:03:24;;;;;;;4.78;1.20;;;;;;;;;;4989296;28;20491;-71
2022/12/23 14:05:50;;;;;;;1.90;1.20;;;;;;;;;;4990989;28;20424;-71
2022/12/23 14:08:19;;;;;;;3.40;0.93;;;;;;;;;;4991500;28;20056;-72
2022/12/23 14:10:56;;;;;;;5.35;0.80;;;;;;;;;;4987379;28;20027;-72
2022/12/23 14:13:22;;;;;;;3.08;0.95;;;;;;;;;;4986815;28;20472;-71
2022/12/23 14:15:59;;;;;;;2.47;1.00;;;;;;;;;;4991555;28;20031;-72
2022/12/23 14:19:03;;;;;;;1.83;0.75;;;;;;;;;;4991315;28;20030;-71
2022/12/23 14:21:28;;;;;;;1.60;0.68;;;;;;;;;;4965988;28;20069;-70
2022/12/23 14:24:12;;;;;;;0.75;0.68;;;;;;;;;;4967099;28;20026;-71
2022/12/23 14:26:46;;;;;;;5.20;1.42;;;;;;;;;;4976916;28;20277;-70
2022/12/23 14:29:30;;;;;;;3.15;0.88;;;;;;;;;;4990654;28;20543;-71
2022/12/23 14:31:57;;;;;;;2.30;0.90;;;;;;;;;;4990392;28;20034;-75
2022/12/23 14:34:27;;;;;;;3.05;1.10;;;;;;;;;;4991396;28;20101;-73
2022/12/23 14:37:11;;;;;;;3.17;1.02;;;;;;;;;;4986543;28;20981;-73
2022/12/23 14:39:36;;;;;;;1.38;0.68;;;;;;;;;;4989438;28;20023;-74
2022/12/23 14:42:01;;;;;;;3.05;0.90;;;;;;;;;;4989866;28;20419;-69
2022/12/23 14:44:35;;;;;;;1.02;0.68;;;;;;;;;;4986837;28;20030;-68
2022/12/23 14:47:01;;;;;;;1.10;0.50;;;;;;;;;;4983287;28;20034;-69
2022/12/23 14:49:41;;;;;;;1.92;0.88;;;;;;;;;;4990188;28;20041;-73
2022/12/23 15:12:41;;;;;;;3.13;1.10;;;;;;;;;;4978116;28;20021;-71
2022/12/23 15:15:35;;;;;;;2.83;0.93;;;;;;;;;;4976159;28;20053;-71
2022/12/23 15:18:13;;;;;;;4.20;2.03;;;;;;;;;;4965226;28;20094;-70
2022/12/23 15:21:28;;;;;;;6.28;1.45;;;;;;;;;;4974687;28;20058;-71
2022/12/23 15:24:46;;;;;;;4.03;1.65;;;;;;;;;;4869399;29;20057;-70
2022/12/23 15:27:34;;;;;;;2.90;1.38;;;;;;;;;;4832436;29;20076;-71
2022/12/23 15:29:59;;;;;;;7.32;1.63;;;;;;;;;;4972596;28;20023;-71
2022/12/23 15:32:26;;;;;;;5.10;2.05;;;;;;;;;;4983004;28;20034;-71
2022/12/23 15:34:53;;;;;;;16.05;2.45;;;;;;;;;;5007103;28;20032;-71
2022/12/23 15:37:26;;;;;;;3.05;1.23;;;;;;;;;;5001687;28;20418;-71